Strona główna
METAR-TAF:

METAR-TAF

Lotnisko :

Port lotniczy Aleksandropolis

Aleksandropolis, Grecja

Szerokość geograficzna: 40-51N, Długość geograficzna: 025-55E, wysokość: 7 m

Aktualna obserwacja pogody

Raport powstał 29 minut temu, godzina 07:50 UTC
Wiatr 3 kt z kierunków zmiennych
Temperatura 7°C
Wilgotność 81%
Ciśnienie 1021 hPa
Widzialność 10 km lub więcej
Brak chmur poniżej 1500 m i brak chmur cumulonimbus

METAR: LGAL 250750Z VRB03KT CAVOK 07/04 Q1021

czas: 10:19 (08:19 UTC)

Prognoza

Raport powstał 3 godziny i 19 minut temu, godzina 05:00 UTC
Prognoza ważna od 25 godzina 06 UTC do 25 godzina 15 UTC
Wiatr 5 kt z kierunków zmiennych
Widzialność 10 km lub więcej
Mało chmury na wysokości 2500 ft
Stopniowe zmiany
od 25 godzina 10 UTC do 25 godzina 12 UTC
Wiatr 10 kt od południowy zachód

TAF: LGAL 250500Z 2506/2515 VRB05KT 9999 FEW025 BECMG 2510/2512 22010KT

Obserwacja i prognoza pogody dla ponad 4000 lotnisk (raport METAR i TAF).

Dostępne stacje oznaczono żółtymi i czerwonymi punktami na mapie.

Najedź kursorem aby zobaczyć nazwę stacji.

Kliknij aby zobaczyć obserwacje i prognozy pogody.

Aby zmienić mapę: kliknij na zielony przycisk z czarnym krzyżykiem, aby powiększyć; na zielony przycisk z myślnikiem, aby pomniejszyć; na zielone strzałki, aby przejść do map sąsiednich.


METAR-TAF: